Rockwall, TX (75087)

10:41 PM CDT on June 23, 2017 (GMT -0500)
Riding Club Estates | | Change Station

Elev 574 ft 32.93 °N, 96.41 °W | Updated 21 days ago

Scattered Clouds
Scattered Clouds
74.1 °F
Feels Like 72 °F
N
4.2
Wind Variable Wind from NNW

Today
High -- | Low -- °F
--% Chance of Precip.
Yesterday
High -- | Low -- °F
Precip. -- in
Pressure 29.90 in
Visibility 10.0 miles
Clouds Scattered Clouds 5500 ft
Heat Index 72 °F
Dew Point 71 °F
Humidity 91%
Rainfall in
Snow Depth Not available.
6:18 AM 8:37 PM
New Moon, 0% visible
METAR KF46 240335Z AUTO 15006KT 10SM SCT055 30/25 A2990 RMK AO2 LTG DSNT N AND NE T02950248
Pressure 29.90 in
Visibility 10.0 miles
Clouds Scattered Clouds 5500 ft
Heat Index 72 °F
Dew Point 71 °F
Humidity 91%
Rainfall in
Snow Depth Not available.
6:18 AM 8:37 PM
New Moon, 0% visible
METAR KF46 240335Z AUTO 15006KT 10SM SCT055 30/25 A2990 RMK AO2 LTG DSNT N AND NE T02950248

Get Severe Weather Alerts

Thanks for signing up!

Be on the lookout for a verification email in your inbox.

You'll start receiving the daily forecast at 6 AM.

×

10-Day Weather Forecast

Almanac

Astronomy

Jun. 23, 2017 Rise Set
Actual Time
Civil Twilight
Nautical Twilight
Astronomical Twilight
Moon
Length of Visible Light
Length of Day
Tomorrow will be .
, % of the Moon is Illuminated

Today's Extremes

State Highs State Lows

Community

WunderPhotos

Category 6

Welcome to Category 6. This is the collective home for Weather Underground's featured writeups by Dr. Jeff Masters (right), Bob Henson (left), Chris Burt, and other regular contributors.

Nearby

Air Quality

  Air Quality AQ Index Pollutant
Not available.

Snow Depth

Station Depth Elevation

Earthquake Activity

City Distance Mag. Time & Date
Minimum magnitude displayed is 2.5.

Coastal Water Temperatures

Place Temperature

Stations

Nearby Weather Stations

Station Location Temp. Windchill Dew Point Humidity Wind Precip. Elev Updated Type
                   

Watches & Warnings

There are currently no watches in effect.